Time;durP1;ratioP1;P1;durP2;ratioP2;P2;SDS_P1;SDS_P2;PMS_P1;PMS_P2;Temp;Humidity;BMP_temperature;BMP_pressure;BME280_temperature;BME280_humidity;BME280_pressure;Samples;Min_cycle;Max_cycle;Signal;HPM_P1;HPM_P2
2021/07/11 00:01:13;;;;;;;5.25;3.92;;;14.50;99.90;;;;;;4958971;29;20031;-90
2021/07/11 00:03:39;;;;;;;8.68;3.60;;;14.50;99.90;;;;;;4955733;29;20023;-91
2021/07/11 00:06:04;;;;;;;6.00;3.80;;;14.50;99.90;;;;;;4956010;29;20070;-92
2021/07/11 00:08:30;;;;;;;6.78;3.95;;;14.40;99.90;;;;;;4957888;28;20178;-90
2021/07/11 00:10:55;;;;;;;5.78;3.70;;;14.40;99.90;;;;;;4959757;29;20039;-90
2021/07/11 00:13:21;;;;;;;5.35;3.83;;;14.40;99.90;;;;;;4959791;29;20039;-90
2021/07/11 00:15:47;;;;;;;9.25;3.70;;;14.30;99.90;;;;;;4959902;29;20023;-90
2021/07/11 00:18:13;;;;;;;7.05;4.40;;;14.30;99.90;;;;;;4962781;29;20023;-90
2021/07/11 00:20:38;;;;;;;5.53;4.28;;;14.30;99.90;;;;;;4976546;29;20063;-90
2021/07/11 00:23:04;;;;;;;8.50;3.65;;;14.30;99.90;;;;;;4975181;29;20047;-90
2021/07/11 00:25:30;;;;;;;6.05;4.22;;;14.20;99.90;;;;;;4971379;29;20050;-90
2021/07/11 00:27:56;;;;;;;7.10;4.40;;;14.20;99.90;;;;;;4968774;29;20024;-89
2021/07/11 00:30:23;;;;;;;8.32;4.78;;;14.20;99.90;;;;;;4966975;29;20024;-91
2021/07/11 00:32:48;;;;;;;14.13;6.43;;;14.20;99.90;;;;;;4966947;29;20047;-91
2021/07/11 00:35:15;;;;;;;14.43;6.22;;;14.20;99.90;;;;;;4962738;29;20035;-90
2021/07/11 00:37:41;;;;;;;9.88;4.78;;;14.10;99.90;;;;;;4959641;29;20027;-92
2021/07/11 00:40:09;;;;;;;7.47;4.82;;;14.00;99.90;;;;;;4958412;29;20027;-93
2021/07/11 00:42:35;;;;;;;7.38;4.35;;;14.00;99.90;;;;;;4959126;29;20035;-92
2021/07/11 00:45:01;;;;;;;7.38;5.18;;;13.90;99.90;;;;;;4958295;29;20038;-91
2021/07/11 00:47:27;;;;;;;6.70;4.82;;;13.90;99.90;;;;;;4957950;29;20437;-92
2021/07/11 00:49:52;;;;;;;5.80;4.13;;;13.90;99.90;;;;;;4958036;29;20024;-91
2021/07/11 00:52:18;;;;;;;7.57;4.20;;;13.90;99.90;;;;;;4958562;28;20104;-91
2021/07/11 00:54:44;;;;;;;8.85;4.97;;;13.90;99.90;;;;;;4958554;29;20100;-92
2021/07/11 00:57:10;;;;;;;7.18;4.68;;;13.80;99.90;;;;;;4966032;29;20485;-91
2021/07/11 00:59:38;;;;;;;8.85;5.03;;;13.80;99.90;;;;;;4959844;29;20039;-92
2021/07/11 01:02:25;;;;;;;10.38;4.90;;;13.70;99.90;;;;;;4957615;29;20027;-91
2021/07/11 01:04:59;;;;;;;9.52;4.40;;;13.60;99.90;;;;;;4958203;29;20035;-91
2021/07/11 01:07:35;;;;;;;6.85;4.40;;;13.60;99.90;;;;;;4958119;29;20027;-91
2021/07/11 01:10:06;;;;;;;8.40;4.93;;;13.50;99.90;;;;;;4958483;29;20042;-92
2021/07/11 01:12:34;;;;;;;7.05;4.28;;;13.50;99.90;;;;;;4957594;29;20035;-92
2021/07/11 01:15:01;;;;;;;10.02;4.63;;;13.40;99.90;;;;;;4957698;29;20027;-91
2021/07/11 01:17:29;;;;;;;8.25;4.55;;;13.40;99.90;;;;;;4958060;29;20038;-92
2021/07/11 01:19:58;;;;;;;6.05;3.85;;;13.30;99.90;;;;;;4956851;28;20705;-92
2021/07/11 01:22:28;;;;;;;6.75;4.30;;;13.30;99.90;;;;;;4957785;29;20039;-91
2021/07/11 01:25:02;;;;;;;8.10;4.63;;;13.20;99.90;;;;;;4957852;29;20071;-91
2021/07/11 01:27:30;;;;;;;8.05;4.03;;;13.20;99.90;;;;;;4958007;29;20035;-91
2021/07/11 01:29:57;;;;;;;10.23;4.55;;;13.20;99.90;;;;;;4957770;29;20031;-91
2021/07/11 01:32:24;;;;;;;4.53;3.67;;;13.10;99.90;;;;;;4961800;29;20485;-91
2021/07/11 01:34:51;;;;;;;5.15;3.90;;;13.10;99.90;;;;;;4968949;29;20028;-92
2021/07/11 01:37:17;;;;;;;5.30;4.07;;;13.10;99.90;;;;;;4962784;29;20023;-92
2021/07/11 01:39:44;;;;;;;5.00;3.70;;;13.10;99.90;;;;;;4962374;29;20130;-91
2021/07/11 01:42:12;;;;;;;6.63;4.15;;;13.00;99.90;;;;;;4960958;29;20035;-91
2021/07/11 01:44:39;;;;;;;5.10;3.67;;;13.10;99.90;;;;;;4960036;29;20030;-91
2021/07/11 01:47:06;;;;;;;7.60;3.95;;;13.00;99.90;;;;;;4961475;29;20047;-92
2021/07/11 01:49:34;;;;;;;5.47;3.72;;;13.00;99.90;;;;;;4960427;29;20038;-91
2021/07/11 01:52:00;;;;;;;4.78;3.70;;;13.00;99.90;;;;;;4957086;28;20114;-92
2021/07/11 01:54:28;;;;;;;5.50;4.35;;;13.00;99.90;;;;;;4955221;29;20024;-91
2021/07/11 01:56:54;;;;;;;4.93;3.80;;;13.00;99.90;;;;;;4939284;29;20472;-90
2021/07/11 01:59:20;;;;;;;6.82;3.95;;;13.00;99.90;;;;;;4938724;29;20059;-91
2021/07/11 02:01:46;;;;;;;5.20;3.88;;;12.90;99.90;;;;;;4939351;29;20070;-91
2021/07/11 02:04:11;;;;;;;6.20;4.15;;;12.90;99.90;;;;;;4938947;29;20027;-92
2021/07/11 02:06:38;;;;;;;5.55;4.20;;;12.90;99.90;;;;;;4938153;29;20031;-91
2021/07/11 02:09:07;;;;;;;7.03;3.95;;;12.90;99.90;;;;;;4938223;29;20023;-92
2021/07/11 02:11:36;;;;;;;5.25;4.10;;;12.80;99.90;;;;;;4941801;29;20039;-92
2021/07/11 02:14:07;;;;;;;10.43;4.50;;;12.80;99.90;;;;;;4937522;29;20031;-92
2021/07/11 02:16:54;;;;;;;7.72;3.95;;;12.80;99.90;;;;;;4937758;29;20024;-91
2021/07/11 02:19:21;;;;;;;7.72;4.28;;;12.70;99.90;;;;;;4937976;29;20039;-92
2021/07/11 02:21:47;;;;;;;6.53;3.78;;;12.70;99.90;;;;;;4937126;29;20165;-92
2021/07/11 02:24:13;;;;;;;5.80;3.63;;;12.70;99.90;;;;;;4937191;29;20446;-91
2021/07/11 02:26:40;;;;;;;9.32;4.40;;;12.70;99.90;;;;;;4937016;29;20402;-92
2021/07/11 02:29:07;;;;;;;8.20;4.03;;;12.70;99.90;;;;;;4937127;29;20024;-91
2021/07/11 02:31:36;;;;;;;7.03;4.22;;;12.70;99.90;;;;;;4937275;29;20024;-92
2021/07/11 02:34:04;;;;;;;7.10;4.20;;;12.60;99.90;;;;;;4937452;29;20031;-91
2021/07/11 02:36:31;;;;;;;5.38;4.40;;;12.60;99.90;;;;;;4937817;29;20071;-92
2021/07/11 02:39:08;;;;;;;6.57;4.57;;;12.50;99.90;;;;;;4937799;29;20035;-91
2021/07/11 02:41:36;;;;;;;7.15;4.63;;;12.60;99.90;;;;;;4937610;29;20048;-91
2021/07/11 02:44:06;;;;;;;9.80;3.67;;;12.50;99.90;;;;;;4937459;29;20051;-92
2021/07/11 02:46:39;;;;;;;5.32;3.50;;;12.50;99.90;;;;;;4936934;29;20031;-91
2021/07/11 02:49:07;;;;;;;4.70;3.58;;;12.40;99.90;;;;;;4936933;29;20114;-92
2021/07/11 02:51:37;;;;;;;6.63;3.08;;;12.30;99.90;;;;;;4936514;29;20028;-91
2021/07/11 02:54:04;;;;;;;4.38;3.42;;;12.30;99.90;;;;;;4936830;29;20446;-91
2021/07/11 02:56:38;;;;;;;4.80;3.55;;;12.10;99.90;;;;;;4936471;29;20036;-91
2021/07/11 02:59:05;;;;;;;5.28;3.97;;;12.10;99.90;;;;;;4952143;29;20036;-91
2021/07/11 03:01:31;;;;;;;7.00;4.10;;;12.00;99.90;;;;;;4935973;29;20039;-91
2021/07/11 03:03:59;;;;;;;8.43;4.07;;;11.90;99.90;;;;;;4936116;29;20050;-91
2021/07/11 03:06:25;;;;;;;11.48;4.25;;;11.90;99.90;;;;;;4936198;29;20031;-91
2021/07/11 03:08:51;;;;;;;6.55;4.43;;;11.80;99.90;;;;;;4935947;29;20051;-92
2021/07/11 03:11:17;;;;;;;4.22;3.42;;;11.80;99.90;;;;;;4935715;29;20032;-91
2021/07/11 03:13:42;;;;;;;5.18;3.70;;;11.80;99.90;;;;;;4936294;29;20038;-91
2021/07/11 03:16:09;;;;;;;6.28;4.22;;;11.80;99.90;;;;;;4936389;29;20118;-91
2021/07/11 03:18:36;;;;;;;9.50;4.43;;;11.80;99.90;;;;;;4936346;29;20063;-91
2021/07/11 03:21:04;;;;;;;9.15;5.18;;;11.80;99.90;;;;;;4935902;29;20585;-92
2021/07/11 03:23:32;;;;;;;8.80;4.93;;;11.80;99.90;;;;;;4936001;29;20071;-91
2021/07/11 03:26:00;;;;;;;8.20;5.57;;;11.90;99.90;;;;;;4935708;29;20039;-91
2021/07/11 03:28:29;;;;;;;8.10;4.60;;;11.80;99.90;;;;;;4937006;29;20040;-92
2021/07/11 03:30:57;;;;;;;8.43;5.28;;;11.80;99.90;;;;;;4935598;29;20513;-92
2021/07/11 03:33:26;;;;;;;11.45;5.70;;;11.90;99.90;;;;;;4935640;29;20485;-91
2021/07/11 03:35:59;;;;;;;12.40;5.40;;;11.90;99.90;;;;;;4935616;29;20032;-91
2021/07/11 03:38:36;;;;;;;7.35;5.47;;;11.90;99.90;;;;;;4935614;29;20119;-91
2021/07/11 03:41:03;;;;;;;10.85;4.68;;;11.80;99.90;;;;;;4935700;29;20103;-91
2021/07/11 03:43:34;;;;;;;8.52;5.15;;;11.80;99.90;;;;;;4935151;29;20051;-91
2021/07/11 03:46:02;;;;;;;6.25;4.55;;;11.70;99.90;;;;;;4935676;29;20032;-90
2021/07/11 03:48:34;;;;;;;6.60;4.82;;;11.80;99.90;;;;;;4935579;29;20031;-92
2021/07/11 03:51:02;;;;;;;11.32;4.53;;;11.70;99.90;;;;;;4935384;29;20082;-91
2021/07/11 03:53:32;;;;;;;6.03;4.70;;;11.70;99.90;;;;;;4935527;29;20485;-92
2021/07/11 03:55:59;;;;;;;6.85;4.40;;;11.80;99.90;;;;;;4935531;29;20474;-92
2021/07/11 03:58:29;;;;;;;5.65;4.72;;;11.80;99.90;;;;;;4935445;29;20024;-91
2021/07/11 04:00:56;;;;;;;9.10;4.60;;;11.80;99.90;;;;;;4935342;29;20172;-91
2021/07/11 04:03:26;;;;;;;6.65;5.15;;;11.80;99.90;;;;;;4935306;29;20023;-91
2021/07/11 04:05:52;;;;;;;;;;;11.80;99.90;;;;;;4935580;29;20482;-91
2021/07/11 04:08:21;;;;;;;6.70;4.78;;;11.80;99.90;;;;;;4949140;29;19961;-91
2021/07/11 04:10:47;;;;;;;6.50;4.88;;;11.80;99.90;;;;;;4954203;29;20118;-91
2021/07/11 04:13:14;;;;;;;22.05;5.85;;;11.70;99.90;;;;;;4954331;29;20058;-91
2021/07/11 04:15:43;;;;;;;12.27;6.03;;;11.70;99.90;;;;;;4954144;29;20493;-90
2021/07/11 04:18:13;;;;;;;12.07;5.57;;;11.60;99.90;;;;;;4954165;29;20078;-91
2021/07/11 04:20:41;;;;;;;47.80;5.78;;;11.60;99.90;;;;;;4954471;29;20517;-90
2021/07/11 04:23:07;;;;;;;58.90;7.68;;;11.60;99.90;;;;;;4953787;29;20050;-91
2021/07/11 04:25:36;;;;;;;90.63;8.40;;;11.50;99.90;;;;;;4954226;29;20378;-91
2021/07/11 04:28:02;;;;;;;38.38;9.10;;;11.50;99.90;;;;;;4954189;29;20027;-91
2021/07/11 04:30:29;;;;;;;84.90;10.27;;;11.50;99.90;;;;;;4954073;29;20118;-91
2021/07/11 04:32:55;;;;;;;26.63;7.38;;;11.50;99.90;;;;;;4954653;29;20035;-91
2021/07/11 04:35:20;;;;;;;13.32;5.80;;;11.40;99.90;;;;;;4954160;29;20078;-91
2021/07/11 04:37:46;;;;;;;8.80;6.35;;;11.40;99.90;;;;;;4954149;29;20069;-91
2021/07/11 04:40:13;;;;;;;8.88;6.68;;;11.40;99.90;;;;;;4956610;29;20027;-91
2021/07/11 04:42:39;;;;;;;10.73;6.18;;;11.40;99.90;;;;;;4960132;29;20066;-90
2021/07/11 04:45:05;;;;;;;9.70;7.25;;;11.40;99.90;;;;;;4953420;29;20485;-91
2021/07/11 04:47:31;;;;;;;9.63;6.30;;;11.50;99.90;;;;;;4953512;29;20084;-91
2021/07/11 04:49:57;;;;;;;7.50;5.70;;;11.50;99.90;;;;;;4953320;29;20481;-91
2021/07/11 04:52:23;;;;;;;10.93;6.13;;;11.60;99.90;;;;;;4953571;29;20027;-89
2021/07/11 04:54:49;;;;;;;9.52;6.95;;;11.60;99.90;;;;;;4959066;28;20045;-91
2021/07/11 04:57:15;;;;;;;10.07;6.32;;;11.60;99.90;;;;;;4957456;29;20054;-91
2021/07/11 04:59:41;;;;;;;9.68;6.05;;;11.60;99.90;;;;;;4957070;29;20071;-91
2021/07/11 05:02:06;;;;;;;9.75;6.38;;;11.60;99.90;;;;;;4957611;29;20023;-91
2021/07/11 05:04:32;;;;;;;9.07;6.63;;;11.70;99.90;;;;;;4957550;29;20038;-91
2021/07/11 05:06:58;;;;;;;11.40;6.95;;;11.60;99.90;;;;;;4956843;29;20028;-91
2021/07/11 05:09:24;;;;;;;9.65;6.32;;;11.60;99.90;;;;;;4957229;29;20047;-91
2021/07/11 05:11:49;;;;;;;10.35;6.90;;;11.60;99.90;;;;;;4957205;29;20034;-91
2021/07/11 05:14:15;;;;;;;10.48;6.75;;;11.60;99.90;;;;;;4957358;29;20058;-90
2021/07/11 05:16:41;;;;;;;15.77;6.93;;;11.60;99.90;;;;;;4957295;29;20078;-90
2021/07/11 05:19:07;;;;;;;15.55;7.10;;;11.60;99.90;;;;;;4957340;29;20024;-91
2021/07/11 05:21:33;;;;;;;12.65;6.65;;;11.70;99.90;;;;;;4956619;29;20042;-91
2021/07/11 05:23:59;;;;;;;12.65;7.07;;;11.70;99.90;;;;;;4956757;29;20049;-90
2021/07/11 05:26:26;;;;;;;26.10;7.30;;;11.70;99.90;;;;;;4956876;29;20477;-92
2021/07/11 05:28:51;;;;;;;15.27;6.97;;;11.70;99.90;;;;;;4957104;29;20047;-92
2021/07/11 05:31:17;;;;;;;14.07;6.95;;;11.70;99.90;;;;;;4956970;29;20034;-91
2021/07/11 05:33:43;;;;;;;18.42;7.30;;;11.70;99.90;;;;;;4956875;29;20090;-92
2021/07/11 05:36:10;;;;;;;13.25;7.45;;;11.70;99.90;;;;;;4957071;29;20031;-91
2021/07/11 05:38:37;;;;;;;10.00;7.00;;;11.80;99.90;;;;;;4957139;29;20046;-92
2021/07/11 05:41:04;;;;;;;9.20;6.75;;;11.90;99.90;;;;;;4956873;29;20126;-92
2021/07/11 05:43:29;;;;;;;10.13;7.22;;;11.90;99.90;;;;;;4956819;29;20027;-91
2021/07/11 05:45:55;;;;;;;10.02;6.22;;;11.90;99.90;;;;;;4957046;29;20469;-91
2021/07/11 05:48:21;;;;;;;10.38;7.88;;;12.00;99.90;;;;;;4957263;29;20173;-91
2021/07/11 05:50:47;;;;;;;9.27;6.88;;;12.10;99.90;;;;;;4956412;29;20019;-91
2021/07/11 05:53:13;;;;;;;11.48;7.53;;;12.10;99.90;;;;;;4956719;29;20028;-92
2021/07/11 05:55:41;;;;;;;9.38;6.57;;;12.20;99.90;;;;;;4956497;29;20035;-92
2021/07/11 05:58:08;;;;;;;12.93;7.28;;;12.30;99.90;;;;;;4956387;29;20030;-91
2021/07/11 06:00:34;;;;;;;8.63;6.18;;;12.40;99.90;;;;;;4955068;29;20039;-92
2021/07/11 06:03:00;;;;;;;9.45;6.65;;;12.50;99.90;;;;;;4956426;29;20035;-92
2021/07/11 06:05:26;;;;;;;8.45;6.13;;;12.50;99.90;;;;;;4955591;28;20401;-92
2021/07/11 06:07:52;;;;;;;9.35;6.28;;;12.50;99.90;;;;;;4956346;29;20038;-92
2021/07/11 06:10:17;;;;;;;7.50;6.00;;;12.60;99.90;;;;;;4956500;29;20027;-91
2021/07/11 06:12:44;;;;;;;9.93;6.35;;;12.70;99.90;;;;;;4956063;29;20474;-93
2021/07/11 06:15:10;;;;;;;11.45;6.40;;;12.80;99.90;;;;;;4956346;29;20058;-92
2021/07/11 06:17:36;;;;;;;8.93;6.18;;;12.90;99.90;;;;;;4956464;29;20046;-92
2021/07/11 06:20:08;;;;;;;9.15;6.60;;;13.00;99.90;;;;;;4955756;29;20035;-92
2021/07/11 06:22:34;;;;;;;7.57;5.53;;;13.10;99.90;;;;;;4955958;29;20093;-92
2021/07/11 06:25:06;;;;;;;12.32;6.50;;;13.20;99.90;;;;;;4956042;29;20098;-92
2021/07/11 06:27:41;;;;;;;9.93;6.20;;;13.30;99.90;;;;;;4955909;29;20038;-92
2021/07/11 06:30:12;;;;;;;8.00;5.82;;;13.40;99.90;;;;;;4956195;29;20035;-89
2021/07/11 06:32:39;;;;;;;10.43;6.03;;;13.50;99.90;;;;;;4955872;29;20031;-92
2021/07/11 06:35:07;;;;;;;7.60;6.00;;;13.60;99.90;;;;;;4955956;29;20034;-90
2021/07/11 06:37:33;;;;;;;8.13;6.18;;;13.70;99.90;;;;;;4955893;29;20032;-93
2021/07/11 06:40:00;;;;;;;7.85;6.22;;;13.80;99.90;;;;;;4955979;29;20070;-92
2021/07/11 06:42:26;;;;;;;8.07;6.07;;;14.00;99.90;;;;;;4955930;29;20031;-92
2021/07/11 06:44:52;;;;;;;9.85;6.78;;;14.10;99.90;;;;;;4955882;29;20027;-89
2021/07/11 06:47:17;;;;;;;9.68;6.63;;;14.30;99.90;;;;;;4955603;29;20034;-90
2021/07/11 06:49:43;;;;;;;11.10;6.80;;;14.50;99.90;;;;;;4955421;29;20027;-92
2021/07/11 06:52:09;;;;;;;9.50;5.88;;;14.70;99.90;;;;;;4955526;29;20027;-93
2021/07/11 06:54:35;;;;;;;10.32;7.10;;;14.80;99.90;;;;;;4955548;29;20078;-93
2021/07/11 06:57:00;;;;;;;9.70;6.68;;;14.90;99.90;;;;;;4955534;29;20370;-92
2021/07/11 06:59:26;;;;;;;13.65;7.20;;;15.10;99.90;;;;;;4955723;29;20492;-92
2021/07/11 07:01:52;;;;;;;9.85;7.25;;;15.10;99.90;;;;;;4955632;29;20035;-93
2021/07/11 07:04:17;;;;;;;9.77;7.15;;;15.30;99.90;;;;;;4955322;29;20504;-94
2021/07/11 07:06:43;;;;;;;11.98;8.00;;;15.40;99.90;;;;;;4955482;29;20031;-90
2021/07/11 07:09:09;;;;;;;11.82;7.88;;;15.60;99.90;;;;;;4962933;29;20289;-93
2021/07/11 07:11:34;;;;;;;11.10;8.27;;;15.60;99.90;;;;;;4962639;29;20118;-94
2021/07/11 07:14:00;;;;;;;11.43;8.13;;;15.70;99.90;;;;;;4957964;29;20023;-90
2021/07/11 07:16:26;;;;;;;11.90;8.18;;;15.70;99.90;;;;;;4956239;29;20031;-92
2021/07/11 07:18:51;;;;;;;13.75;8.45;;;15.70;99.90;;;;;;4954624;28;20031;-91
2021/07/11 07:21:17;;;;;;;16.73;8.70;;;15.70;99.90;;;;;;4955695;29;20054;-90
2021/07/11 07:23:44;;;;;;;13.77;9.38;;;15.80;99.90;;;;;;4955228;28;20669;-89
2021/07/11 07:26:10;;;;;;;14.25;9.05;;;15.70;99.90;;;;;;4954660;29;20099;-92
2021/07/11 07:28:37;;;;;;;14.13;9.68;;;15.70;99.90;;;;;;4954774;29;20027;-90
2021/07/11 07:31:03;;;;;;;16.73;10.38;;;15.70;99.90;;;;;;4955280;29;20397;-93
2021/07/11 07:33:29;;;;;;;17.15;10.20;;;15.70;99.90;;;;;;4955539;29;20019;-90
2021/07/11 07:35:55;;;;;;;19.30;11.70;;;15.80;99.90;;;;;;4955063;29;20473;-92
2021/07/11 07:38:21;;;;;;;16.20;11.35;;;15.80;99.90;;;;;;4955587;29;20027;-93
2021/07/11 07:40:48;;;;;;;19.73;13.23;;;15.80;99.90;;;;;;4963917;29;20062;-91
2021/07/11 07:43:13;;;;;;;18.73;11.85;;;15.80;99.90;;;;;;4973536;29;20026;-90
2021/07/11 07:45:44;;;;;;;19.63;12.05;;;15.80;99.90;;;;;;4965059;29;20051;-90
2021/07/11 07:48:11;;;;;;;15.63;11.25;;;15.80;99.90;;;;;;4965578;28;20091;-93
2021/07/11 07:50:38;;;;;;;19.35;11.27;;;15.90;99.90;;;;;;4973694;29;20031;-95
2021/07/11 07:53:04;;;;;;;16.55;11.82;;;15.90;99.90;;;;;;4963615;29;20074;-95
2021/07/11 07:55:31;;;;;;;23.23;12.60;;;16.00;99.90;;;;;;4960493;29;20028;-96
2021/07/11 07:57:59;;;;;;;16.65;10.90;;;16.00;99.90;;;;;;4961068;29;20037;-96
2021/07/11 08:00:26;;;;;;;16.67;11.73;;;16.00;99.90;;;;;;4961863;29;20134;-96
2021/07/11 08:02:52;;;;;;;18.10;11.63;;;16.10;99.90;;;;;;4959873;29;20032;-96
2021/07/11 08:05:18;;;;;;;14.55;10.65;;;16.10;99.90;;;;;;4961554;29;20034;-95
2021/07/11 08:07:45;;;;;;;20.92;11.55;;;16.20;99.90;;;;;;4958626;29;20393;-96
2021/07/11 08:10:12;;;;;;;17.10;11.80;;;16.20;99.90;;;;;;4958056;29;20024;-96
2021/07/11 08:12:39;;;;;;;16.50;10.65;;;16.20;99.90;;;;;;4957606;29;20035;-96
2021/07/11 08:15:06;;;;;;;19.67;11.00;;;16.30;99.90;;;;;;4957343;29;20023;-96
2021/07/11 08:17:32;;;;;;;17.23;10.85;;;16.30;99.90;;;;;;4957459;29;20034;-96
2021/07/11 08:19:59;;;;;;;19.63;11.75;;;16.40;99.90;;;;;;4957773;29;20028;-96
2021/07/11 08:22:25;;;;;;;18.17;12.10;;;16.40;99.90;;;;;;4966303;29;20082;-96
2021/07/11 08:24:51;;;;;;;19.40;11.50;;;16.50;99.90;;;;;;4970097;28;20050;-94
2021/07/11 08:27:16;;;;;;;20.35;13.00;;;16.50;99.90;;;;;;4964838;29;20035;-96
2021/07/11 08:29:42;;;;;;;17.23;11.90;;;16.50;99.90;;;;;;4963562;28;20023;-96
2021/07/11 08:32:12;;;;;;;18.58;12.32;;;16.60;99.90;;;;;;4970143;29;20039;-96
2021/07/11 08:34:58;;;;;;;19.50;12.15;;;16.80;99.90;;;;;;5052204;23;20035;-95
2021/07/11 08:37:30;;;;;;;15.77;10.50;;;16.80;99.90;;;;;;4992852;28;20031;-96
2021/07/11 08:40:00;;;;;;;20.95;11.35;;;17.00;99.90;;;;;;4982357;28;20039;-96
2021/07/11 08:42:33;;;;;;;18.70;11.27;;;17.10;99.90;;;;;;4998345;28;20042;-95
2021/07/11 08:45:01;;;;;;;17.85;11.75;;;17.20;99.90;;;;;;4997927;28;20274;-95
2021/07/11 08:47:37;;;;;;;19.23;11.13;;;17.30;99.90;;;;;;5009432;28;20036;-96
2021/07/11 08:50:05;;;;;;;16.60;10.63;;;17.50;99.90;;;;;;5011236;28;20058;-96
2021/07/11 08:52:37;;;;;;;16.45;10.43;;;17.60;99.90;;;;;;4991013;28;20007;-95
2021/07/11 08:55:13;;;;;;;17.98;10.70;;;17.70;99.90;;;;;;4977766;28;20043;-96
2021/07/11 08:57:39;;;;;;;15.40;10.70;;;17.80;99.90;;;;;;4978468;29;20036;-96
2021/07/11 09:00:29;;;;;;;18.38;9.75;;;17.90;99.90;;;;;;4980665;28;20035;-94
2021/07/11 09:03:02;;;;;;;14.23;9.27;;;18.00;99.90;;;;;;4992883;28;20047;-96
2021/07/11 09:05:40;;;;;;;15.57;9.02;;;18.10;99.90;;;;;;4996384;28;20035;-94
2021/07/11 09:08:23;;;;;;;13.98;9.57;;;18.30;99.90;;;;;;4992093;28;20498;-95
2021/07/11 09:10:56;;;;;;;13.43;9.60;;;18.40;99.90;;;;;;4975748;28;20032;-95
2021/07/11 09:13:24;;;;;;;12.15;8.15;;;18.50;99.90;;;;;;4962192;28;20421;-95
2021/07/11 09:15:56;;;;;;;12.82;7.55;;;18.70;99.90;;;;;;4965338;29;20053;-96
2021/07/11 09:18:31;;;;;;;14.60;8.02;;;18.80;99.90;;;;;;4964908;28;20023;-96
2021/07/11 09:21:13;;;;;;;13.75;7.70;;;18.90;99.90;;;;;;4977941;28;20046;-96
2021/07/11 09:23:40;;;;;;;10.82;6.72;;;19.00;99.90;;;;;;4978548;28;20027;-96
2021/07/11 09:26:12;;;;;;;12.85;6.93;;;19.00;99.90;;;;;;4978843;28;20031;-95
2021/07/11 09:28:46;;;;;;;9.35;6.80;;;19.10;99.90;;;;;;4980487;28;20022;-96
2021/07/11 09:31:18;;;;;;;9.85;6.45;;;19.10;99.90;;;;;;4980697;28;20027;-95
2021/07/11 09:33:46;;;;;;;9.73;6.28;;;19.10;99.90;;;;;;4967818;28;20076;-94
2021/07/11 09:36:20;;;;;;;9.32;5.93;;;19.10;99.90;;;;;;4965244;28;20071;-95
2021/07/11 09:38:58;;;;;;;10.07;6.28;;;19.10;99.90;;;;;;4979082;28;20019;-96
2021/07/11 09:41:27;;;;;;;8.07;6.25;;;19.10;99.90;;;;;;4972102;28;20042;-94
2021/07/11 09:43:55;;;;;;;8.70;5.88;;;19.10;99.90;;;;;;4963902;28;20094;-94
2021/07/11 09:46:35;;;;;;;7.00;5.43;;;19.00;99.90;;;;;;4977602;28;20058;-96
2021/07/11 09:49:03;;;;;;;11.02;6.30;;;19.00;99.90;;;;;;4975571;28;20034;-94
2021/07/11 09:51:29;;;;;;;16.48;6.10;;;18.90;99.90;;;;;;4965775;28;20852;-94
2021/07/11 09:54:11;;;;;;;7.53;5.70;;;18.90;99.90;;;;;;4961816;28;20039;-95
2021/07/11 09:56:42;;;;;;;8.63;5.60;;;18.90;99.90;;;;;;4972110;28;20051;-94
2021/07/11 09:59:11;;;;;;;7.60;5.90;;;18.90;99.90;;;;;;4959416;28;20051;-94
2021/07/11 10:01:40;;;;;;;8.75;6.18;;;19.00;99.90;;;;;;4963791;28;20035;-96
2021/07/11 10:04:07;;;;;;;9.70;6.40;;;19.00;99.90;;;;;;4977672;28;20023;-95
2021/07/11 10:06:35;;;;;;;8.82;6.20;;;19.10;99.90;;;;;;4973568;28;20026;-96
2021/07/11 10:09:01;;;;;;;9.63;6.28;;;19.10;99.90;;;;;;4967505;28;20030;-95
2021/07/11 10:11:28;;;;;;;9.63;6.32;;;19.10;99.90;;;;;;4976581;28;20022;-95
2021/07/11 10:13:54;;;;;;;10.95;6.85;;;19.20;99.90;;;;;;4958993;28;20117;-95
2021/07/11 10:16:24;;;;;;;8.68;5.50;;;19.30;99.90;;;;;;4958274;28;20039;-95
2021/07/11 10:19:00;;;;;;;8.85;5.78;;;19.40;99.90;;;;;;4976993;28;20026;-94
2021/07/11 10:21:31;;;;;;;8.43;5.82;;;19.50;99.90;;;;;;4961240;28;20081;-95
2021/07/11 10:23:57;;;;;;;7.72;5.38;;;19.60;99.90;;;;;;4963098;28;20086;-94
2021/07/11 10:26:34;;;;;;;10.52;6.13;;;19.70;99.90;;;;;;4977187;28;20054;-95
2021/07/11 10:29:19;;;;;;;10.98;5.72;;;19.80;99.90;;;;;;4959836;28;20027;-95
2021/07/11 10:31:50;;;;;;;9.63;6.13;;;19.70;99.90;;;;;;4960844;28;20039;-94
2021/07/11 10:34:34;;;;;;;5.93;4.80;;;19.70;99.90;;;;;;4956674;28;20118;-95
2021/07/11 10:37:16;;;;;;;8.48;6.22;;;19.60;99.90;;;;;;4960412;28;20067;-95
2021/07/11 10:39:43;;;;;;;10.50;6.13;;;19.60;99.90;;;;;;4958787;28;20442;-95
2021/07/11 10:42:10;;;;;;;7.25;5.45;;;19.70;99.90;;;;;;4972001;28;20039;-95
2021/07/11 10:44:36;;;;;;;8.70;5.35;;;19.70;99.90;;;;;;4966431;28;20035;-95
2021/07/11 10:47:04;;;;;;;9.93;5.28;;;19.70;99.90;;;;;;4965482;28;20094;-96
2021/07/11 10:49:49;;;;;;;6.65;5.10;;;19.80;99.90;;;;;;4968738;28;20031;-96
2021/07/11 10:52:25;;;;;;;8.88;5.03;;;19.80;99.90;;;;;;4976867;28;20030;-96
2021/07/11 10:54:54;;;;;;;7.68;5.65;;;19.90;99.90;;;;;;4978092;28;20023;-96
2021/07/11 10:57:28;;;;;;;7.68;5.55;;;20.00;99.90;;;;;;4965711;28;20028;-94
2021/07/11 10:59:54;;;;;;;7.72;5.20;;;20.00;99.90;;;;;;4978531;28;20031;-96
2021/07/11 11:02:27;;;;;;;10.98;5.68;;;20.10;99.90;;;;;;4964780;28;20031;-96
2021/07/11 11:05:16;;;;;;;8.95;5.65;;;20.20;99.60;;;;;;4961252;28;20108;-96
2021/07/11 11:07:53;;;;;;;8.68;5.53;;;20.40;99.60;;;;;;4968726;28;20554;-96
2021/07/11 11:10:40;;;;;;;7.63;5.50;;;20.60;99.40;;;;;;4968860;28;20139;-96
2021/07/11 11:13:21;;;;;;;9.10;5.47;;;20.80;98.90;;;;;;4980620;28;20027;-96
2021/07/11 11:15:50;;;;;;;8.45;6.13;;;21.00;98.30;;;;;;4970411;28;20085;-96
2021/07/11 11:18:45;;;;;;;6.55;4.68;;;21.20;97.90;;;;;;4976051;28;20554;-96
2021/07/11 11:21:14;;;;;;;6.00;4.28;;;21.40;97.40;;;;;;4941886;28;20106;-90
2021/07/11 11:23:48;;;;;;;7.07;4.88;;;21.80;96.60;;;;;;4961363;28;20035;-90
2021/07/11 11:26:24;;;;;;;7.43;4.50;;;22.20;95.90;;;;;;4968411;28;20035;-89
2021/07/11 11:28:52;;;;;;;3.95;3.38;;;22.60;94.40;;;;;;4958524;28;20126;-89
2021/07/11 11:31:25;;;;;;;5.35;3.67;;;22.90;93.10;;;;;;4963594;28;20038;-91
2021/07/11 11:33:59;;;;;;;5.13;3.92;;;23.20;91.40;;;;;;4960598;28;20090;-91
2021/07/11 11:36:40;;;;;;;5.35;3.83;;;23.40;90.00;;;;;;4963239;28;20092;-90
2021/07/11 11:39:12;;;;;;;4.07;3.45;;;23.30;88.10;;;;;;4965357;28;20425;-89
2021/07/11 11:41:39;;;;;;;4.45;3.20;;;23.20;87.40;;;;;;4968592;28;20389;-89
2021/07/11 11:44:14;;;;;;;5.38;3.20;;;23.20;87.00;;;;;;4970581;28;20019;-87
2021/07/11 11:46:42;;;;;;;3.92;3.35;;;23.20;86.80;;;;;;4952669;28;20485;-88
2021/07/11 11:49:10;;;;;;;4.82;3.30;;;23.20;86.90;;;;;;4954815;28;20031;-90
2021/07/11 11:51:51;;;;;;;5.75;2.40;;;23.10;86.40;;;;;;4969308;28;20027;-89
2021/07/11 11:54:30;;;;;;;2.83;2.33;;;23.00;85.40;;;;;;4962878;28;20485;-88
2021/07/11 11:56:57;;;;;;;6.85;2.20;;;22.80;84.70;;;;;;4963631;28;20583;-90
2021/07/11 11:59:24;;;;;;;2.38;2.17;;;22.70;84.10;;;;;;4961302;28;20023;-89
2021/07/11 12:02:02;;;;;;;3.60;2.40;;;22.50;83.30;;;;;;4962468;28;20039;-89
2021/07/11 12:04:29;;;;;;;3.10;2.40;;;22.30;83.10;;;;;;4960869;28;20027;-89
2021/07/11 12:06:56;;;;;;;3.95;2.70;;;22.10;83.80;;;;;;4965842;28;20122;-90
2021/07/11 12:09:33;;;;;;;2.95;2.33;;;21.90;84.20;;;;;;4957036;28;20477;-89
2021/07/11 12:11:59;;;;;;;3.45;2.63;;;21.70;85.20;;;;;;4954352;28;20477;-89
2021/07/11 12:14:26;;;;;;;3.53;3.20;;;21.50;86.00;;;;;;4968370;28;20042;-89
2021/07/11 12:16:59;;;;;;;5.45;2.80;;;21.30;87.60;;;;;;4958491;28;20083;-89
2021/07/11 12:19:25;;;;;;;5.35;2.72;;;21.20;88.20;;;;;;4959466;28;20154;-89
2021/07/11 12:21:52;;;;;;;3.60;2.85;;;21.00;88.90;;;;;;4960194;28;20039;-88
2021/07/11 12:24:21;;;;;;;3.33;2.67;;;20.90;90.00;;;;;;4957478;28;20027;-88
2021/07/11 12:26:50;;;;;;;3.95;2.80;;;20.90;90.40;;;;;;4962923;28;20054;-89
2021/07/11 12:29:25;;;;;;;3.50;2.72;;;20.80;90.70;;;;;;4953589;28;20065;-90
2021/07/11 12:32:00;;;;;;;3.08;2.47;;;20.80;90.90;;;;;;4968898;28;20028;-89
2021/07/11 12:34:26;;;;;;;6.45;3.13;;;20.80;91.20;;;;;;4966439;28;20114;-88
2021/07/11 12:37:07;;;;;;;3.50;2.50;;;20.60;91.40;;;;;;4953160;28;20130;-88
2021/07/11 12:39:37;;;;;;;5.07;2.78;;;20.50;92.00;;;;;;4970860;28;20023;-89
2021/07/11 12:42:15;;;;;;;4.20;3.00;;;20.40;92.10;;;;;;4958400;28;20039;-89
2021/07/11 12:44:41;;;;;;;4.57;3.05;;;20.30;92.50;;;;;;4961251;28;20027;-90
2021/07/11 12:47:15;;;;;;;5.50;3.15;;;20.20;93.10;;;;;;4967482;28;20027;-90
2021/07/11 12:49:56;;;;;;;4.35;3.40;;;20.10;93.60;;;;;;4961348;28;20548;-90
2021/07/11 12:52:24;;;;;;;5.35;3.47;;;19.90;94.20;;;;;;4960699;28;20051;-89